createdAt,value
2022-10-11T00:00:45.572Z,10.10
2022-10-11T00:03:31.507Z,9.30
2022-10-11T00:06:03.761Z,12.80
2022-10-11T00:08:33.624Z,10.20
2022-10-11T00:11:07.759Z,14.80
2022-10-11T00:13:36.657Z,11.90
2022-10-11T00:16:11.309Z,10.30
2022-10-11T00:18:42.533Z,10.80
2022-10-11T00:21:15.304Z,10.50
2022-10-11T00:23:43.255Z,15.30
2022-10-11T00:26:15.048Z,11.50
2022-10-11T00:28:43.740Z,11.60
2022-10-11T00:31:18.454Z,12.00
2022-10-11T00:33:46.355Z,13.30
2022-10-11T00:36:16.762Z,11.60
2022-10-11T00:38:48.619Z,11.30
2022-10-11T00:41:17.995Z,13.60
2022-10-11T00:43:47.676Z,13.70
2022-10-11T00:46:18.758Z,11.20
2022-10-11T00:48:51.598Z,12.60
2022-10-11T00:51:28.959Z,13.00
2022-10-11T00:53:57.183Z,13.70
2022-10-11T00:56:31.479Z,15.10
2022-10-11T00:59:00.610Z,12.20
2022-10-11T01:01:28.475Z,14.00
2022-10-11T01:03:57.156Z,13.30
2022-10-11T01:06:25.831Z,15.30
2022-10-11T01:08:53.645Z,13.30
2022-10-11T01:11:25.301Z,12.30
2022-10-11T01:14:17.281Z,13.30
2022-10-11T01:17:04.539Z,12.60
2022-10-11T01:20:12.349Z,19.60
2022-10-11T01:23:43.469Z,10.90
2022-10-11T01:26:30.183Z,12.20
2022-10-11T01:29:12.723Z,12.20
2022-10-11T01:32:15.867Z,14.50
2022-10-11T01:34:59.003Z,11.10
2022-10-11T01:37:47.287Z,10.70
2022-10-11T01:40:25.451Z,16.20
2022-10-11T01:42:55.375Z,13.20
2022-10-11T01:45:24.539Z,13.60
2022-10-11T01:48:22.747Z,12.40
2022-10-11T01:50:53.802Z,10.40
2022-10-11T01:53:25.754Z,12.50
2022-10-11T01:56:10.806Z,13.70
2022-10-11T01:59:12.810Z,12.90
2022-10-11T02:02:16.812Z,9.30
2022-10-11T02:05:19.037Z,9.70
2022-10-11T02:07:52.832Z,11.90
2022-10-11T02:10:36.902Z,7.20
2022-10-11T02:13:29.155Z,10.60
2022-10-11T02:16:02.347Z,9.90
2022-10-11T02:18:34.017Z,6.90
2022-10-11T02:21:06.711Z,11.70
2022-10-11T02:23:56.898Z,10.40
2022-10-11T02:26:29.748Z,9.70
2022-10-11T02:29:01.638Z,10.40
2022-10-11T02:34:02.862Z,8.40
2022-10-11T02:36:38.112Z,11.20
2022-10-11T02:39:25.315Z,7.30
2022-10-11T02:41:58.250Z,10.40
2022-10-11T02:44:59.758Z,8.20
2022-10-11T02:47:30.236Z,7.40
2022-10-11T02:50:00.301Z,8.70
2022-10-11T02:52:28.269Z,8.60
2022-10-11T02:54:56.338Z,9.60
2022-10-11T02:57:25.582Z,6.70
2022-10-11T02:59:53.686Z,11.20
2022-10-11T03:02:22.583Z,6.60
2022-10-11T03:04:50.654Z,7.40
2022-10-11T03:07:18.738Z,8.30
2022-10-11T03:09:46.913Z,8.00
2022-10-11T03:12:14.660Z,10.20
2022-10-11T03:14:42.486Z,8.00
2022-10-11T03:17:34.668Z,9.30
2022-10-11T03:19:58.805Z,8.10
2022-10-11T03:22:26.874Z,11.10
2022-10-11T03:24:56.644Z,14.30
2022-10-11T03:27:27.879Z,9.00
2022-10-11T03:29:58.715Z,9.20
2022-10-11T03:32:28.078Z,8.70
2022-10-11T03:34:57.049Z,9.80
2022-10-11T03:37:25.515Z,7.80
2022-10-11T03:39:53.810Z,10.70
2022-10-11T03:42:21.815Z,7.60
2022-10-11T03:44:51.892Z,10.30
2022-10-11T03:47:20.845Z,7.10
2022-10-11T03:49:49.103Z,13.20
2022-10-11T03:52:21.334Z,10.60
2022-10-11T03:54:49.338Z,7.80
2022-10-11T03:57:18.915Z,8.40
2022-10-11T03:59:48.178Z,6.50
2022-10-11T04:02:16.453Z,8.20
2022-10-11T04:04:44.473Z,8.90
2022-10-11T04:07:12.473Z,7.30
2022-10-11T04:09:40.352Z,6.40
2022-10-11T04:12:08.403Z,9.20
2022-10-11T04:14:36.993Z,9.90
2022-10-11T04:17:05.526Z,9.10
2022-10-11T04:19:33.675Z,8.30
2022-10-11T04:22:01.513Z,9.30
2022-10-11T04:24:29.540Z,8.20
2022-10-11T04:26:59.295Z,8.30
2022-10-11T04:29:31.549Z,8.70
2022-10-11T04:32:00.332Z,13.60
2022-10-11T04:34:28.216Z,11.60
2022-10-11T04:36:56.784Z,8.50
2022-10-11T04:39:24.894Z,9.00
2022-10-11T04:41:53.937Z,6.90
2022-10-11T04:44:21.881Z,7.60
2022-10-11T04:46:49.839Z,10.30
2022-10-11T04:49:17.731Z,7.40
2022-10-11T04:51:45.670Z,8.70
2022-10-11T04:54:26.575Z,7.00
2022-10-11T04:56:56.528Z,9.60
2022-10-11T04:59:24.643Z,5.90
2022-10-11T05:01:54.233Z,11.30
2022-10-11T05:04:22.187Z,11.10
2022-10-11T05:06:54.995Z,8.80
2022-10-11T05:09:23.207Z,8.00
2022-10-11T05:11:51.031Z,8.70
2022-10-11T05:14:20.186Z,6.30
2022-10-11T05:16:50.083Z,6.40
2022-10-11T05:19:17.905Z,10.20
2022-10-11T05:21:45.959Z,7.20
2022-10-11T05:24:14.367Z,13.70
2022-10-11T05:26:42.306Z,9.40
2022-10-11T05:29:10.550Z,7.30
2022-10-11T05:31:38.440Z,12.30
2022-10-11T05:34:06.295Z,6.90
2022-10-11T05:36:38.102Z,10.40
2022-10-11T05:39:06.123Z,7.90
2022-10-11T05:41:34.224Z,9.10
2022-10-11T05:44:03.323Z,8.20
2022-10-11T05:46:31.084Z,8.70
2022-10-11T05:49:00.382Z,9.10
2022-10-11T05:51:29.277Z,7.80
2022-10-11T05:53:58.733Z,8.70
2022-10-11T05:56:27.011Z,6.20
2022-10-11T05:59:02.159Z,7.10
2022-10-11T06:01:30.606Z,8.50
2022-10-11T06:04:00.802Z,9.60
2022-10-11T06:06:28.951Z,7.80
2022-10-11T06:08:59.060Z,9.50
2022-10-11T06:11:28.048Z,8.80
2022-10-11T06:14:00.708Z,7.60
2022-10-11T06:16:28.649Z,6.80
2022-10-11T06:18:59.399Z,9.40
2022-10-11T06:21:27.226Z,5.10
2022-10-11T06:24:01.316Z,8.60
2022-10-11T06:26:30.163Z,5.00
2022-10-11T06:28:59.357Z,8.20
2022-10-11T06:31:27.280Z,5.90
2022-10-11T06:33:56.042Z,7.70
2022-10-11T06:36:24.558Z,4.80
2022-10-11T06:38:53.722Z,6.80
2022-10-11T06:41:24.024Z,7.00
2022-10-11T06:43:51.949Z,6.60
2022-10-11T06:46:21.831Z,5.80
2022-10-11T06:48:50.723Z,11.50
2022-10-11T06:51:20.542Z,6.40
2022-10-11T06:53:51.779Z,7.00
2022-10-11T06:56:20.568Z,9.30
2022-10-11T06:58:52.106Z,9.20
2022-10-11T07:01:21.819Z,8.50
2022-10-11T07:03:51.666Z,9.00
2022-10-11T07:06:22.384Z,7.60
2022-10-11T07:08:50.298Z,4.70
2022-10-11T07:11:24.652Z,6.40
2022-10-11T07:13:55.078Z,7.50
2022-10-11T07:16:24.281Z,4.80
2022-10-11T07:18:59.563Z,6.30
2022-10-11T07:21:29.863Z,7.10
2022-10-11T07:23:58.163Z,4.10
2022-10-11T07:26:26.326Z,7.30
2022-10-11T07:28:55.872Z,7.00
2022-10-11T07:31:25.505Z,5.50
2022-10-11T07:33:54.039Z,8.00
2022-10-11T07:36:23.788Z,7.60
2022-10-11T07:38:51.869Z,2.90
2022-10-11T07:41:21.349Z,4.00
2022-10-11T07:43:51.004Z,5.60
2022-10-11T07:46:19.073Z,7.70
2022-10-11T07:48:47.055Z,7.10
2022-10-11T07:51:18.662Z,5.60
2022-10-11T07:53:57.152Z,6.60
2022-10-11T07:56:29.049Z,3.70
2022-10-11T07:59:03.614Z,3.90
2022-10-11T08:01:33.660Z,4.90
2022-10-11T08:04:01.760Z,8.50
2022-10-11T08:06:32.509Z,3.80
2022-10-11T08:09:02.158Z,3.70
2022-10-11T08:11:36.187Z,5.10
2022-10-11T08:14:08.802Z,6.10
2022-10-11T08:16:41.625Z,5.90
2022-10-11T08:19:11.630Z,4.20
2022-10-11T08:21:41.389Z,5.90
2022-10-11T08:24:15.216Z,4.90
2022-10-11T08:26:47.397Z,5.50
2022-10-11T08:29:15.555Z,7.40
2022-10-11T08:31:44.901Z,6.30
2022-10-11T08:34:14.235Z,5.10
2022-10-11T08:36:42.322Z,6.00
2022-10-11T08:39:12.319Z,6.90
2022-10-11T08:42:04.407Z,4.80
2022-10-11T08:45:09.630Z,5.90
2022-10-11T08:47:40.323Z,5.70
2022-10-11T08:50:19.910Z,4.90
2022-10-11T08:52:56.815Z,5.50
2022-10-11T08:55:29.108Z,4.00
2022-10-11T08:58:02.315Z,5.60
2022-10-11T09:00:32.232Z,3.10
2022-10-11T09:03:38.920Z,7.40
2022-10-11T09:06:22.624Z,6.20
2022-10-11T09:09:01.087Z,6.60
2022-10-11T09:12:09.117Z,3.20
2022-10-11T09:14:49.304Z,5.40
2022-10-11T09:17:17.288Z,6.30
2022-10-11T09:20:13.531Z,4.40
2022-10-11T09:22:50.784Z,4.80
2022-10-11T09:25:33.913Z,2.50
2022-10-11T09:28:23.915Z,4.60
2022-10-11T09:30:55.045Z,5.40
2022-10-11T09:33:40.636Z,3.80
2022-10-11T09:36:41.917Z,4.90
2022-10-11T09:39:27.704Z,7.10
2022-10-11T09:42:03.193Z,2.90
2022-10-11T09:44:41.558Z,4.60
2022-10-11T09:47:14.629Z,4.80
2022-10-11T09:50:08.165Z,7.10
2022-10-11T10:08:31.431Z,5.30
2022-10-11T10:11:38.722Z,2.80
2022-10-11T10:15:11.348Z,4.90
2022-10-11T10:17:57.831Z,4.30
2022-10-11T10:21:06.438Z,3.30
2022-10-11T10:23:39.473Z,3.50
2022-10-11T10:26:34.762Z,2.10
2022-10-11T10:34:16.161Z,5.20
2022-10-11T10:37:10.916Z,5.50
2022-10-11T10:41:13.472Z,5.50
2022-10-11T10:44:13.965Z,4.80
2022-10-11T10:47:30.377Z,3.40
2022-10-11T10:50:38.832Z,4.30
2022-10-11T10:57:00.450Z,2.90
2022-10-11T10:57:12.027Z,6.30
2022-10-11T11:04:37.962Z,4.40
2022-10-11T11:07:35.765Z,2.80
2022-10-11T11:14:30.380Z,2.30
2022-10-11T11:17:11.318Z,3.50
2022-10-11T11:19:49.468Z,4.70
2022-10-11T11:22:35.819Z,3.50
2022-10-11T11:25:28.351Z,3.70
2022-10-11T11:28:04.220Z,3.20
2022-10-11T11:30:45.475Z,3.40
2022-10-11T11:34:02.322Z,3.60
2022-10-11T11:41:21.186Z,2.00
2022-10-11T11:45:09.230Z,5.90
2022-10-11T11:48:18.869Z,2.60
2022-10-11T11:51:52.545Z,3.30
2022-10-11T11:56:01.972Z,3.80
2022-10-11T11:58:37.946Z,4.20
2022-10-11T12:01:09.098Z,4.10
2022-10-11T12:03:42.018Z,4.70
2022-10-11T12:06:30.282Z,3.80
2022-10-11T12:09:16.375Z,3.90
2022-10-11T12:11:59.148Z,2.30
2022-10-11T12:14:45.264Z,6.70
2022-10-11T12:17:23.446Z,3.80
2022-10-11T12:20:09.395Z,3.70
2022-10-11T12:22:49.474Z,5.00
2022-10-11T12:25:23.135Z,3.10
2022-10-11T12:27:57.003Z,3.20
2022-10-11T12:30:44.101Z,5.10
2022-10-11T12:33:24.628Z,1.80
2022-10-11T12:35:55.531Z,3.70
2022-10-11T12:38:26.103Z,5.80
2022-10-11T12:41:18.222Z,3.70
2022-10-11T12:43:48.798Z,2.80
2022-10-11T12:46:29.014Z,4.60
2022-10-11T12:49:05.853Z,2.90
2022-10-11T12:51:42.511Z,2.00
2022-10-11T12:54:37.402Z,6.20
2022-10-11T12:57:11.846Z,3.10
2022-10-11T12:59:45.108Z,3.60
2022-10-11T13:02:39.378Z,4.90
2022-10-11T13:05:16.136Z,3.40
2022-10-11T13:07:45.106Z,4.40
2022-10-11T13:10:20.599Z,4.00
2022-10-11T13:12:49.146Z,4.80
2022-10-11T13:15:19.451Z,4.40
2022-10-11T13:17:48.803Z,4.10
2022-10-11T13:20:19.837Z,5.40
2022-10-11T13:22:53.100Z,5.50
2022-10-11T13:25:29.519Z,4.40
2022-10-11T13:27:59.537Z,3.60
2022-10-11T13:30:34.267Z,4.90
2022-10-11T13:33:06.498Z,4.10
2022-10-11T13:35:36.492Z,3.90
2022-10-11T13:38:08.754Z,3.80
2022-10-11T13:40:37.734Z,5.50
2022-10-11T13:43:05.817Z,5.60
2022-10-11T13:45:36.914Z,7.90
2022-10-11T13:48:05.208Z,5.40
2022-10-11T13:50:34.453Z,9.00
2022-10-11T13:53:05.338Z,3.80
2022-10-11T13:55:57.321Z,5.70
2022-10-11T13:58:30.654Z,6.40
2022-10-11T14:01:01.492Z,4.20
2022-10-11T14:03:41.330Z,2.40
2022-10-11T14:06:09.731Z,2.00
2022-10-11T14:08:59.434Z,3.30
2022-10-11T14:11:36.851Z,5.00
2022-10-11T14:14:32.883Z,3.10
2022-10-11T14:17:12.289Z,3.60
2022-10-11T14:19:40.913Z,4.00
2022-10-11T14:22:17.052Z,5.10
2022-10-11T14:24:48.232Z,6.60
2022-10-11T14:27:21.954Z,5.00
2022-10-11T14:30:12.916Z,7.00
2022-10-11T14:32:39.919Z,4.60
2022-10-11T14:35:24.588Z,5.90
2022-10-11T14:37:52.912Z,3.40
2022-10-11T14:40:24.205Z,5.00
2022-10-11T14:42:52.165Z,2.90
2022-10-11T14:45:21.390Z,3.10
2022-10-11T14:47:49.774Z,4.20
2022-10-11T14:50:28.636Z,6.70
2022-10-11T14:52:57.301Z,2.90
2022-10-11T14:55:25.254Z,3.90
2022-10-11T14:57:53.106Z,3.00
2022-10-11T15:00:24.299Z,4.40
2022-10-11T15:05:26.910Z,4.70
2022-10-11T15:07:57.741Z,4.20
2022-10-11T15:10:28.339Z,4.10
2022-10-11T15:12:56.855Z,3.80
2022-10-11T15:15:26.485Z,6.20
2022-10-11T15:17:57.303Z,6.70
2022-10-11T15:20:35.955Z,4.60
2022-10-11T15:23:04.688Z,7.50
2022-10-11T15:25:32.479Z,5.60
2022-10-11T15:28:00.520Z,8.10
2022-10-11T15:30:31.658Z,7.30
2022-10-11T15:32:59.601Z,6.20
2022-10-11T15:35:27.850Z,6.00
2022-10-11T15:37:58.251Z,8.80
2022-10-11T15:40:36.941Z,11.30
2022-10-11T15:43:05.246Z,25.60
2022-10-11T15:45:34.212Z,26.20
2022-10-11T15:48:02.099Z,40.70
2022-10-11T15:50:39.403Z,44.40
2022-10-11T15:53:10.476Z,53.50
2022-10-11T15:55:49.512Z,48.00
2022-10-11T15:58:19.283Z,33.40
2022-10-11T16:00:48.660Z,29.40
2022-10-11T16:03:17.684Z,11.40
2022-10-11T16:05:45.565Z,11.40
2022-10-11T16:08:14.217Z,11.50
2022-10-11T16:10:42.185Z,7.40
2022-10-11T16:13:10.733Z,8.60
2022-10-11T16:15:40.888Z,9.20
2022-10-11T16:18:10.776Z,9.10
2022-10-11T16:20:39.828Z,8.80
2022-10-11T16:23:08.069Z,8.20
2022-10-11T16:25:39.312Z,11.00
2022-10-11T16:28:08.189Z,11.20
2022-10-11T16:30:45.214Z,18.40
2022-10-11T16:33:13.365Z,23.10
2022-10-11T16:35:41.794Z,19.00
2022-10-11T16:38:10.547Z,27.10
2022-10-11T16:40:39.994Z,27.30
2022-10-11T16:43:08.314Z,41.30
2022-10-11T16:45:36.357Z,39.70
2022-10-11T16:48:04.865Z,49.70
2022-10-11T16:50:38.317Z,37.70
2022-10-11T16:53:07.430Z,32.90
2022-10-11T16:55:35.364Z,27.20
2022-10-11T16:58:03.134Z,22.20
2022-10-11T17:00:30.991Z,16.60
2022-10-11T17:02:59.225Z,17.10
2022-10-11T17:05:27.017Z,16.00
2022-10-11T17:07:54.826Z,15.30
2022-10-11T17:10:39.291Z,17.70
2022-10-11T17:13:07.501Z,19.00
2022-10-11T17:15:36.148Z,19.90
2022-10-11T17:18:04.002Z,19.80
2022-10-11T17:20:32.295Z,26.50
2022-10-11T17:23:00.049Z,26.00
2022-10-11T17:25:28.210Z,18.70
2022-10-11T17:27:56.939Z,16.90
2022-10-11T17:30:26.295Z,19.60
2022-10-11T17:32:54.286Z,23.00
2022-10-11T17:35:22.020Z,24.30
2022-10-11T17:37:50.143Z,22.40
2022-10-11T17:40:18.590Z,20.40
2022-10-11T17:42:47.785Z,22.20
2022-10-11T17:45:15.939Z,24.50
2022-10-11T17:47:44.039Z,20.50
2022-10-11T17:50:11.837Z,20.00
2022-10-11T17:52:39.635Z,25.00
2022-10-11T17:55:07.857Z,22.90
2022-10-11T17:57:35.660Z,26.80
2022-10-11T18:00:05.304Z,23.50
2022-10-11T18:02:34.633Z,29.70
2022-10-11T18:05:04.271Z,25.00
2022-10-11T18:07:32.339Z,29.80
2022-10-11T18:10:00.549Z,26.90
2022-10-11T18:12:28.404Z,23.70
2022-10-11T18:14:56.303Z,26.40
2022-10-11T18:17:24.077Z,31.10
2022-10-11T18:19:51.899Z,28.30
2022-10-11T18:22:19.784Z,32.20
2022-10-11T18:24:48.784Z,29.00
2022-10-11T18:27:16.622Z,27.60
2022-10-11T18:29:44.399Z,30.30
2022-10-11T18:32:12.222Z,28.60
2022-10-11T18:34:40.113Z,31.90
2022-10-11T18:37:08.491Z,24.60
2022-10-11T18:39:36.255Z,32.20
2022-10-11T18:42:04.684Z,29.50
2022-10-11T18:44:32.712Z,28.50
2022-10-11T18:47:00.570Z,33.10
2022-10-11T18:49:28.468Z,29.40
2022-10-11T18:51:57.122Z,28.00
2022-10-11T18:54:24.962Z,30.30
2022-10-11T18:56:52.905Z,33.70
2022-10-11T18:59:20.671Z,30.80
2022-10-11T19:01:52.079Z,34.90
2022-10-11T19:04:20.339Z,24.90
2022-10-11T19:06:48.721Z,32.50
2022-10-11T19:09:22.444Z,30.20
2022-10-11T19:11:52.066Z,30.40
2022-10-11T19:14:22.370Z,31.00
2022-10-11T19:16:51.718Z,26.10
2022-10-11T19:19:21.224Z,29.90
2022-10-11T19:21:49.489Z,28.30
2022-10-11T19:24:18.831Z,29.60
2022-10-11T19:26:47.407Z,29.70
2022-10-11T19:29:19.133Z,28.00
2022-10-11T19:31:52.067Z,31.20
2022-10-11T19:34:21.372Z,27.90
2022-10-11T19:36:53.420Z,26.80
2022-10-11T19:39:22.291Z,37.90
2022-10-11T19:41:50.569Z,32.70
2022-10-11T19:44:18.882Z,31.20
2022-10-11T19:46:52.091Z,29.40
2022-10-11T19:49:24.916Z,32.60
2022-10-11T19:51:55.224Z,30.40
2022-10-11T19:54:24.270Z,31.10
2022-10-11T19:56:53.615Z,30.60
2022-10-11T19:59:21.535Z,27.30
2022-10-11T20:01:52.767Z,30.00
2022-10-11T20:07:10.766Z,26.80
2022-10-11T20:09:38.699Z,26.20
2022-10-11T20:12:07.382Z,29.00
2022-10-11T20:14:35.157Z,24.00
2022-10-11T20:17:02.919Z,23.80
2022-10-11T20:19:31.290Z,27.70
2022-10-11T20:22:01.055Z,24.70
2022-10-11T20:24:32.975Z,25.00
2022-10-11T20:27:03.769Z,21.00
2022-10-11T20:29:31.661Z,24.20
2022-10-11T20:32:00.227Z,20.60
2022-10-11T20:34:28.384Z,20.50
2022-10-11T20:36:56.382Z,20.50
2022-10-11T20:39:24.203Z,22.50
2022-10-11T20:41:52.141Z,20.20
2022-10-11T20:44:19.951Z,22.40
2022-10-11T20:46:47.761Z,27.20
2022-10-11T20:49:15.600Z,25.80
2022-10-11T20:51:43.971Z,25.40
2022-10-11T20:54:12.062Z,20.60
2022-10-11T20:56:39.887Z,23.70
2022-10-11T20:59:08.601Z,23.70
2022-10-11T21:01:40.843Z,22.80
2022-10-11T21:04:17.569Z,23.80
2022-10-11T21:06:45.882Z,20.50
2022-10-11T21:09:15.677Z,21.20
2022-10-11T21:11:45.129Z,24.80
2022-10-11T21:14:13.239Z,18.40
2022-10-11T21:16:41.022Z,26.90
2022-10-11T21:19:12.787Z,23.50
2022-10-11T21:21:40.670Z,21.30
2022-10-11T21:24:08.558Z,19.90
2022-10-11T21:26:36.385Z,23.30
2022-10-11T21:29:04.341Z,20.70
2022-10-11T21:31:34.231Z,21.70
2022-10-11T21:34:04.980Z,24.10
2022-10-11T21:36:33.075Z,22.00
2022-10-11T21:39:00.852Z,22.10
2022-10-11T21:41:31.598Z,20.70
2022-10-11T21:43:59.523Z,19.50
2022-10-11T21:46:54.230Z,23.90
2022-10-11T21:49:17.394Z,25.90
2022-10-11T21:51:45.336Z,23.60
2022-10-11T21:54:13.207Z,25.00
2022-10-11T21:56:40.957Z,20.90
2022-10-11T21:59:12.066Z,24.10
2022-10-11T22:01:41.658Z,24.30
2022-10-11T22:04:10.564Z,23.80
2022-10-11T22:06:39.355Z,28.70
2022-10-11T22:09:08.269Z,21.60
2022-10-11T22:11:36.533Z,20.90
2022-10-11T22:14:04.469Z,23.00
2022-10-11T22:16:33.302Z,24.60
2022-10-11T22:19:01.005Z,21.30
2022-10-11T22:21:28.809Z,20.70
2022-10-11T22:23:56.703Z,22.90
2022-10-11T22:26:26.983Z,27.40
2022-10-11T22:28:54.713Z,26.60
2022-10-11T22:31:23.301Z,26.60
2022-10-11T22:33:58.488Z,24.10
2022-10-11T22:36:27.364Z,24.80
2022-10-11T22:38:55.098Z,24.10
2022-10-11T22:41:23.245Z,31.70
2022-10-11T22:43:51.272Z,27.20
2022-10-11T22:46:19.028Z,24.50
2022-10-11T22:48:46.878Z,27.10
2022-10-11T22:51:14.677Z,28.10
2022-10-11T22:53:42.780Z,26.80
2022-10-11T22:56:11.232Z,24.70
2022-10-11T22:58:38.986Z,32.60
2022-10-11T23:01:40.748Z,28.00
2022-10-11T23:04:08.793Z,26.90
2022-10-11T23:06:36.579Z,25.90
2022-10-11T23:09:04.867Z,25.90
2022-10-11T23:11:32.597Z,26.50
2022-10-11T23:14:00.347Z,30.90
2022-10-11T23:16:28.147Z,21.60
2022-10-11T23:18:55.951Z,24.20
2022-10-11T23:21:23.815Z,21.80
2022-10-11T23:23:55.322Z,22.60
2022-10-11T23:26:23.264Z,24.40
2022-10-11T23:28:54.633Z,24.60
2022-10-11T23:31:22.565Z,25.50
2022-10-11T23:33:50.299Z,30.10
2022-10-11T23:36:23.491Z,23.60
2022-10-11T23:38:58.591Z,25.80
2022-10-11T23:41:28.308Z,24.10
2022-10-11T23:43:56.624Z,24.60
2022-10-11T23:46:28.398Z,20.50
2022-10-11T23:48:56.324Z,24.10
2022-10-11T23:51:24.370Z,21.60
2022-10-11T23:53:52.334Z,23.90
2022-10-11T23:56:20.184Z,21.70
2022-10-11T23:58:48.040Z,20.80
